Flight Track Log - Related Links

Times and Time Zones

All times are in EDT time to prevent confusion due to time zone crossing. See the AMF1324 flight status page for this flight to view local times or setup timezone preferences in your user account.

Time Position Orientation Groundspeed Altitude Reporting Facility
EDT Latitude Longitude Course Direction KTS MPH feet Rate Location/Type
Wed 08:08:50 AM 42.1731 -75.9864 294° West 162 186 5,200  Level New Center
Wed 08:09:50 AM 42.1683 -76.0478 264° West 149 171 7,900 1,650 Climbing New Center
Wed 08:10:50 AM 42.1592 -76.1142 259° West 173 199 8,500 1,100 Climbing New Center
Wed 08:11:50 AM 42.1725 -76.1881 284° West 188 216 10,100 1,750 Climbing New Center
Wed 08:12:50 AM 42.2028 -76.2519 303° West 198 228 12,000 1,000 Climbing New Center
Wed 08:13:50 AM 42.2367 -76.3333 299° West 219 252 12,100 52 Climbing New Center
Wed 08:14:00 AM 42.1881 -76.2142 294° West  Level FlightAware
Wed 08:14:46 AM 42.2719 -76.4156 300° West 246 283 12,100  Level Cleveland Center
Wed 08:15:48 AM 42.3067 -76.4978 300° West 252 290 12,100 -48 Level Cleveland Center
Wed 08:16:50 AM 42.3419 -76.5808 300° West 253 291 12,000  Descending Cleveland Center
Wed 08:17:52 AM 42.3789 -76.6639 301° West 255 293 12,100  Climbing Cleveland Center
Wed 08:18:53 AM 42.4111 -76.7486 297° West 258 297 12,000 49 Descending Cleveland Center
Wed 08:19:55 AM 42.4439 -76.8333 298° West 256 295 12,200 97 Climbing Cleveland Center
Wed 08:20:57 AM 42.4883 -76.9333 301° West 257 296 12,200  Level Cleveland Center
Wed 08:21:59 AM 42.5269 -77.0147 303° West 257 296 12,200 -97 Level Cleveland Center
Wed 08:23:01 AM 42.5614 -77.1003 299° West 257 296 12,000 -97 Descending Cleveland Center
Wed 08:24:03 AM 42.5972 -77.1847 300° West 258 297 12,000  Level Cleveland Center
Wed 08:25:05 AM 42.6361 -77.2669 303° West 259 298 12,000  Level Cleveland Center
Wed 08:26:07 AM 42.6736 -77.3517 301° West 262 302 12,000  Level Cleveland Center
Wed 08:27:00 AM 42.7189 -77.4439 304° West 266 306 12,000  Level Cleveland Center
Wed 08:27:09 AM 42.7225 -77.4503 308° West 263 303 12,000 -240 Level Cleveland Center
Wed 08:27:25 AM 42.7333 -77.4767 299° West 268 308 11,900 -632 Descending Cleveland Center
Wed 08:28:25 AM 42.7714 -77.5672 300° West 280 322 11,200 -505 Descending Cleveland Center
Wed 08:29:12 AM 42.7969 -77.6303 299° West 277 319 11,000 -327 Descending Cleveland Center
Wed 08:29:20 AM 42.8083 -77.6517 306° West 279 321 10,900 -774 Descending Cleveland Center
Wed 08:30:14 AM 42.8353 -77.7214 298° West 278 320 10,200 -1,100 Descending Cleveland Center
Wed 08:30:20 AM 42.8433 -77.7475 293° West 278 320 9,800 -1,065 Descending Cleveland Center
Wed 08:31:16 AM 42.8464 -77.8414 273° West 272 313 9,100 -864 Descending Cleveland Center
Wed 08:32:18 AM 42.8531 -77.9408 275° West 257 296 8,100 -871 Descending Cleveland Center
Wed 08:33:20 AM 42.8608 -78.0294 277° West 248 285 7,300 -968 Descending Cleveland Center
Wed 08:34:22 AM 42.8706 -78.1233 278° West 243 280 6,100 -1,065 Descending Cleveland Center
Wed 08:35:24 AM 42.8814 -78.2158 279° West 238 274 5,100 -480 Descending Cleveland Center
Wed 08:36:27 AM 42.8914 -78.2958 280° West 209 241 5,100 -242 Level Cleveland Center
Wed 08:37:28 AM 42.9000 -78.3783 278° West 208 239 4,600 -488 Descending Cleveland Center
Wed 08:38:30 AM 42.9400 -78.4450 309° West 214 246 4,100 -339 Descending Cleveland Center
Wed 08:39:32 AM 42.9589 -78.5117 291° West 200 230 3,900 -683 Descending Cleveland Center
Wed 08:40:33 AM 42.9847 -78.5797 297° West 196 226 2,700 -683 Descending Cleveland Center
Wed 08:41:35 AM 43.0075 -78.6489 294° West 194 223 2,500 -433 Descending Cleveland Center
Wed 08:42:10 AM 42.9833 -78.6667 208° Southwest 106 122 2,000 -674 Descending Buffalo TRACON
Wed 08:43:04 AM 42.9667 -78.6833 216° Southwest 99 114 1,500 -556 Descending Buffalo TRACON
Wed 08:45:00 AM 42.9333 -78.7167 270° West  Level FlightAware
Wed 08:52:00 AM 42.9404 -78.7306 270° West  Level Estimated

Login

Don't have an account? Register now (free) for customized features, flight alerts, and more!